sensor_id;sensor_type;location;lat;lon;timestamp;P1;durP1;ratioP1;P2;durP2;ratioP2
33108;SDS011;19481;51.118;6.940;2024-02-28T00:01:10;8.13;;;2.80;;
33108;SDS011;19481;51.118;6.940;2024-02-28T00:06:15;7.75;;;2.47;;
33108;SDS011;19481;51.118;6.940;2024-02-28T00:11:17;4.07;;;2.55;;
33108;SDS011;19481;51.118;6.940;2024-02-28T00:16:18;2.15;;;1.85;;
33108;SDS011;19481;51.118;6.940;2024-02-28T00:21:21;3.72;;;2.47;;
33108;SDS011;19481;51.118;6.940;2024-02-28T00:26:23;9.32;;;2.63;;
33108;SDS011;19481;51.118;6.940;2024-02-28T00:31:24;10.73;;;2.67;;
33108;SDS011;19481;51.118;6.940;2024-02-28T00:36:27;8.80;;;2.30;;
33108;SDS011;19481;51.118;6.940;2024-02-28T00:41:29;5.55;;;2.70;;
33108;SDS011;19481;51.118;6.940;2024-02-28T00:46:31;3.42;;;2.38;;
33108;SDS011;19481;51.118;6.940;2024-02-28T00:51:34;3.22;;;1.95;;
33108;SDS011;19481;51.118;6.940;2024-02-28T00:56:37;6.43;;;1.95;;
33108;SDS011;19481;51.118;6.940;2024-02-28T01:01:39;7.53;;;2.47;;
33108;SDS011;19481;51.118;6.940;2024-02-28T01:06:42;5.15;;;2.58;;
33108;SDS011;19481;51.118;6.940;2024-02-28T01:11:44;4.93;;;3.22;;
33108;SDS011;19481;51.118;6.940;2024-02-28T01:16:45;4.43;;;2.83;;
33108;SDS011;19481;51.118;6.940;2024-02-28T01:21:48;9.55;;;2.65;;
33108;SDS011;19481;51.118;6.940;2024-02-28T01:26:50;5.50;;;3.17;;
33108;SDS011;19481;51.118;6.940;2024-02-28T01:31:51;5.85;;;3.15;;
33108;SDS011;19481;51.118;6.940;2024-02-28T01:36:55;4.88;;;2.33;;
33108;SDS011;19481;51.118;6.940;2024-02-28T01:41:56;5.75;;;2.30;;
33108;SDS011;19481;51.118;6.940;2024-02-28T01:46:58;9.48;;;3.53;;
33108;SDS011;19481;51.118;6.940;2024-02-28T01:52:01;4.03;;;3.28;;
33108;SDS011;19481;51.118;6.940;2024-02-28T01:57:03;8.32;;;3.08;;
33108;SDS011;19481;51.118;6.940;2024-02-28T02:02:06;5.00;;;2.60;;
33108;SDS011;19481;51.118;6.940;2024-02-28T02:07:10;5.72;;;2.92;;
33108;SDS011;19481;51.118;6.940;2024-02-28T02:12:11;12.02;;;2.65;;
33108;SDS011;19481;51.118;6.940;2024-02-28T02:17:13;8.45;;;3.50;;
33108;SDS011;19481;51.118;6.940;2024-02-28T02:22:16;6.68;;;3.08;;
33108;SDS011;19481;51.118;6.940;2024-02-28T02:27:20;11.27;;;3.05;;
33108;SDS011;19481;51.118;6.940;2024-02-28T02:32:21;7.28;;;2.30;;
33108;SDS011;19481;51.118;6.940;2024-02-28T02:37:23;3.08;;;2.55;;
33108;SDS011;19481;51.118;6.940;2024-02-28T02:42:26;5.40;;;2.50;;
33108;SDS011;19481;51.118;6.940;2024-02-28T02:47:28;7.97;;;3.50;;
33108;SDS011;19481;51.118;6.940;2024-02-28T02:52:31;12.73;;;2.92;;
33108;SDS011;19481;51.118;6.940;2024-02-28T02:57:35;6.82;;;3.03;;
33108;SDS011;19481;51.118;6.940;2024-02-28T03:02:36;4.10;;;2.42;;
33108;SDS011;19481;51.118;6.940;2024-02-28T03:07:39;5.72;;;2.65;;
33108;SDS011;19481;51.118;6.940;2024-02-28T03:12:42;4.93;;;2.55;;
33108;SDS011;19481;51.118;6.940;2024-02-28T03:17:44;5.88;;;2.67;;
33108;SDS011;19481;51.118;6.940;2024-02-28T03:22:45;10.82;;;3.38;;
33108;SDS011;19481;51.118;6.940;2024-02-28T03:27:48;9.55;;;3.17;;
33108;SDS011;19481;51.118;6.940;2024-02-28T03:32:50;3.97;;;2.78;;
33108;SDS011;19481;51.118;6.940;2024-02-28T03:37:52;5.13;;;2.33;;
33108;SDS011;19481;51.118;6.940;2024-02-28T03:42:54;11.63;;;3.13;;
33108;SDS011;19481;51.118;6.940;2024-02-28T03:47:56;9.32;;;3.63;;
33108;SDS011;19481;51.118;6.940;2024-02-28T03:52:58;5.15;;;2.75;;
33108;SDS011;19481;51.118;6.940;2024-02-28T03:58:01;9.00;;;2.75;;
33108;SDS011;19481;51.118;6.940;2024-02-28T04:03:03;9.57;;;3.17;;
33108;SDS011;19481;51.118;6.940;2024-02-28T04:08:05;6.75;;;2.38;;
33108;SDS011;19481;51.118;6.940;2024-02-28T04:13:09;10.05;;;2.70;;
33108;SDS011;19481;51.118;6.940;2024-02-28T04:18:10;8.10;;;2.60;;
33108;SDS011;19481;51.118;6.940;2024-02-28T04:23:12;9.15;;;3.50;;
33108;SDS011;19481;51.118;6.940;2024-02-28T04:28:15;7.30;;;3.08;;
33108;SDS011;19481;51.118;6.940;2024-02-28T04:33:16;11.90;;;3.15;;
33108;SDS011;19481;51.118;6.940;2024-02-28T04:38:18;8.52;;;3.30;;
33108;SDS011;19481;51.118;6.940;2024-02-28T04:43:21;9.70;;;3.60;;
33108;SDS011;19481;51.118;6.940;2024-02-28T04:48:22;4.72;;;2.72;;
33108;SDS011;19481;51.118;6.940;2024-02-28T04:53:24;9.48;;;3.60;;
33108;SDS011;19481;51.118;6.940;2024-02-28T04:58:27;8.88;;;3.20;;
33108;SDS011;19481;51.118;6.940;2024-02-28T05:03:29;18.27;;;4.38;;
33108;SDS011;19481;51.118;6.940;2024-02-28T05:08:30;7.75;;;3.00;;
33108;SDS011;19481;51.118;6.940;2024-02-28T05:13:34;15.15;;;3.53;;
33108;SDS011;19481;51.118;6.940;2024-02-28T05:18:36;5.15;;;2.90;;
33108;SDS011;19481;51.118;6.940;2024-02-28T05:23:38;12.50;;;5.13;;
33108;SDS011;19481;51.118;6.940;2024-02-28T05:28:41;13.45;;;4.05;;
33108;SDS011;19481;51.118;6.940;2024-02-28T05:33:42;14.30;;;3.50;;
33108;SDS011;19481;51.118;6.940;2024-02-28T05:38:44;10.82;;;4.70;;
33108;SDS011;19481;51.118;6.940;2024-02-28T05:43:47;13.00;;;3.60;;
33108;SDS011;19481;51.118;6.940;2024-02-28T05:48:49;11.13;;;2.63;;
33108;SDS011;19481;51.118;6.940;2024-02-28T05:53:51;15.75;;;2.72;;
33108;SDS011;19481;51.118;6.940;2024-02-28T05:58:54;9.48;;;3.70;;
33108;SDS011;19481;51.118;6.940;2024-02-28T06:03:55;9.52;;;4.85;;
33108;SDS011;19481;51.118;6.940;2024-02-28T06:08:57;12.57;;;3.70;;
33108;SDS011;19481;51.118;6.940;2024-02-28T06:14:00;10.48;;;4.03;;
33108;SDS011;19481;51.118;6.940;2024-02-28T06:19:02;17.55;;;4.13;;
33108;SDS011;19481;51.118;6.940;2024-02-28T06:24:04;9.93;;;3.53;;
33108;SDS011;19481;51.118;6.940;2024-02-28T06:29:07;14.15;;;3.70;;
33108;SDS011;19481;51.118;6.940;2024-02-28T06:34:09;9.65;;;4.47;;
33108;SDS011;19481;51.118;6.940;2024-02-28T06:39:11;18.17;;;4.35;;
33108;SDS011;19481;51.118;6.940;2024-02-28T06:44:14;8.85;;;2.97;;
33108;SDS011;19481;51.118;6.940;2024-02-28T06:49:16;10.50;;;3.75;;
33108;SDS011;19481;51.118;6.940;2024-02-28T06:54:18;14.45;;;3.40;;
33108;SDS011;19481;51.118;6.940;2024-02-28T06:59:22;7.55;;;3.60;;
33108;SDS011;19481;51.118;6.940;2024-02-28T07:04:24;9.23;;;2.60;;
33108;SDS011;19481;51.118;6.940;2024-02-28T07:09:26;5.75;;;3.00;;
33108;SDS011;19481;51.118;6.940;2024-02-28T07:14:32;13.10;;;2.92;;
33108;SDS011;19481;51.118;6.940;2024-02-28T07:19:34;8.13;;;3.65;;
33108;SDS011;19481;51.118;6.940;2024-02-28T07:24:36;8.48;;;3.08;;
33108;SDS011;19481;51.118;6.940;2024-02-28T07:29:39;5.82;;;3.25;;
33108;SDS011;19481;51.118;6.940;2024-02-28T07:34:40;11.68;;;3.25;;
33108;SDS011;19481;51.118;6.940;2024-02-28T07:39:42;18.05;;;4.43;;
33108;SDS011;19481;51.118;6.940;2024-02-28T07:44:45;7.55;;;3.80;;
33108;SDS011;19481;51.118;6.940;2024-02-28T07:49:46;16.90;;;3.15;;
33108;SDS011;19481;51.118;6.940;2024-02-28T07:54:48;7.15;;;3.00;;
33108;SDS011;19481;51.118;6.940;2024-02-28T07:59:51;7.93;;;3.65;;
33108;SDS011;19481;51.118;6.940;2024-02-28T08:04:52;11.70;;;3.35;;
33108;SDS011;19481;51.118;6.940;2024-02-28T08:09:54;13.27;;;4.32;;
33108;SDS011;19481;51.118;6.940;2024-02-28T08:14:57;10.18;;;2.85;;
33108;SDS011;19481;51.118;6.940;2024-02-28T08:19:59;19.95;;;4.53;;
33108;SDS011;19481;51.118;6.940;2024-02-28T08:25:00;13.00;;;2.55;;
33108;SDS011;19481;51.118;6.940;2024-02-28T08:30:04;10.77;;;3.72;;
33108;SDS011;19481;51.118;6.940;2024-02-28T08:35:08;16.10;;;4.55;;
33108;SDS011;19481;51.118;6.940;2024-02-28T08:40:10;8.02;;;4.25;;
33108;SDS011;19481;51.118;6.940;2024-02-28T08:45:13;11.38;;;2.88;;
33108;SDS011;19481;51.118;6.940;2024-02-28T08:50:15;13.25;;;4.43;;
33108;SDS011;19481;51.118;6.940;2024-02-28T08:55:17;13.35;;;4.32;;
33108;SDS011;19481;51.118;6.940;2024-02-28T09:00:21;9.43;;;3.17;;
33108;SDS011;19481;51.118;6.940;2024-02-28T09:05:23;18.90;;;4.85;;
33108;SDS011;19481;51.118;6.940;2024-02-28T09:10:24;6.55;;;3.30;;
33108;SDS011;19481;51.118;6.940;2024-02-28T09:15:27;11.77;;;4.18;;
33108;SDS011;19481;51.118;6.940;2024-02-28T09:20:29;9.32;;;3.58;;
33108;SDS011;19481;51.118;6.940;2024-02-28T09:25:31;5.88;;;3.08;;
33108;SDS011;19481;51.118;6.940;2024-02-28T09:30:34;9.80;;;3.50;;
33108;SDS011;19481;51.118;6.940;2024-02-28T09:35:36;11.38;;;3.70;;
33108;SDS011;19481;51.118;6.940;2024-02-28T09:40:37;4.97;;;2.90;;
33108;SDS011;19481;51.118;6.940;2024-02-28T09:45:40;11.40;;;2.80;;
33108;SDS011;19481;51.118;6.940;2024-02-28T09:50:42;9.32;;;3.70;;
33108;SDS011;19481;51.118;6.940;2024-02-28T09:55:44;11.27;;;4.35;;
33108;SDS011;19481;51.118;6.940;2024-02-28T10:00:47;6.88;;;3.08;;
33108;SDS011;19481;51.118;6.940;2024-02-28T10:05:49;10.88;;;3.63;;
33108;SDS011;19481;51.118;6.940;2024-02-28T10:10:51;12.43;;;4.13;;
33108;SDS011;19481;51.118;6.940;2024-02-28T10:15:56;9.82;;;4.85;;
33108;SDS011;19481;51.118;6.940;2024-02-28T10:20:58;9.27;;;3.50;;
33108;SDS011;19481;51.118;6.940;2024-02-28T10:26:00;13.35;;;4.00;;
33108;SDS011;19481;51.118;6.940;2024-02-28T10:31:03;13.70;;;3.40;;
33108;SDS011;19481;51.118;6.940;2024-02-28T10:36:05;10.95;;;3.38;;
33108;SDS011;19481;51.118;6.940;2024-02-28T10:41:07;9.27;;;4.32;;
33108;SDS011;19481;51.118;6.940;2024-02-28T10:46:12;9.50;;;4.43;;
33108;SDS011;19481;51.118;6.940;2024-02-28T10:51:15;13.88;;;4.82;;
33108;SDS011;19481;51.118;6.940;2024-02-28T10:56:19;13.57;;;4.85;;
33108;SDS011;19481;51.118;6.940;2024-02-28T11:01:22;16.02;;;5.00;;
33108;SDS011;19481;51.118;6.940;2024-02-28T11:06:24;9.80;;;4.45;;
33108;SDS011;19481;51.118;6.940;2024-02-28T11:11:30;10.57;;;4.32;;
33108;SDS011;19481;51.118;6.940;2024-02-28T11:16:34;10.38;;;4.65;;
33108;SDS011;19481;51.118;6.940;2024-02-28T11:21:37;12.15;;;4.75;;
33108;SDS011;19481;51.118;6.940;2024-02-28T11:26:39;12.50;;;4.53;;
33108;SDS011;19481;51.118;6.940;2024-02-28T11:31:42;8.30;;;4.18;;
33108;SDS011;19481;51.118;6.940;2024-02-28T11:36:46;10.18;;;4.47;;
33108;SDS011;19481;51.118;6.940;2024-02-28T11:41:48;17.05;;;4.35;;
33108;SDS011;19481;51.118;6.940;2024-02-28T11:46:51;12.43;;;4.07;;
33108;SDS011;19481;51.118;6.940;2024-02-28T11:51:53;16.42;;;4.40;;
33108;SDS011;19481;51.118;6.940;2024-02-28T11:56:54;11.60;;;4.22;;
33108;SDS011;19481;51.118;6.940;2024-02-28T12:01:57;10.75;;;4.32;;
33108;SDS011;19481;51.118;6.940;2024-02-28T12:06:59;11.00;;;5.05;;
33108;SDS011;19481;51.118;6.940;2024-02-28T12:12:01;16.58;;;5.30;;
33108;SDS011;19481;51.118;6.940;2024-02-28T12:17:05;10.65;;;4.68;;
33108;SDS011;19481;51.118;6.940;2024-02-28T12:22:06;11.80;;;4.40;;
33108;SDS011;19481;51.118;6.940;2024-02-28T12:27:08;10.80;;;3.85;;
33108;SDS011;19481;51.118;6.940;2024-02-28T12:32:11;9.23;;;4.05;;
33108;SDS011;19481;51.118;6.940;2024-02-28T12:37:13;9.13;;;4.32;;
33108;SDS011;19481;51.118;6.940;2024-02-28T12:42:14;13.20;;;4.72;;
33108;SDS011;19481;51.118;6.940;2024-02-28T12:47:18;8.95;;;3.72;;
33108;SDS011;19481;51.118;6.940;2024-02-28T12:52:19;10.00;;;3.40;;
33108;SDS011;19481;51.118;6.940;2024-02-28T12:57:21;7.63;;;3.70;;
33108;SDS011;19481;51.118;6.940;2024-02-28T13:02:24;9.70;;;3.83;;
33108;SDS011;19481;51.118;6.940;2024-02-28T13:07:25;15.10;;;4.30;;
33108;SDS011;19481;51.118;6.940;2024-02-28T13:12:30;9.30;;;4.28;;
33108;SDS011;19481;51.118;6.940;2024-02-28T13:17:33;10.02;;;3.95;;
33108;SDS011;19481;51.118;6.940;2024-02-28T13:22:35;13.52;;;4.00;;
33108;SDS011;19481;51.118;6.940;2024-02-28T13:27:36;10.65;;;4.13;;
33108;SDS011;19481;51.118;6.940;2024-02-28T13:32:39;9.00;;;3.00;;
33108;SDS011;19481;51.118;6.940;2024-02-28T13:37:41;9.65;;;3.33;;
33108;SDS011;19481;51.118;6.940;2024-02-28T13:42:43;8.63;;;3.33;;
33108;SDS011;19481;51.118;6.940;2024-02-28T13:47:46;7.15;;;3.58;;
33108;SDS011;19481;51.118;6.940;2024-02-28T13:52:48;7.82;;;3.97;;
33108;SDS011;19481;51.118;6.940;2024-02-28T13:57:49;8.13;;;3.03;;
33108;SDS011;19481;51.118;6.940;2024-02-28T14:02:52;8.77;;;3.97;;
33108;SDS011;19481;51.118;6.940;2024-02-28T14:07:55;7.40;;;3.65;;
33108;SDS011;19481;51.118;6.940;2024-02-28T14:12:57;10.07;;;3.90;;
33108;SDS011;19481;51.118;6.940;2024-02-28T14:18:00;8.05;;;3.25;;
33108;SDS011;19481;51.118;6.940;2024-02-28T14:23:01;6.82;;;4.03;;
33108;SDS011;19481;51.118;6.940;2024-02-28T14:28:04;5.07;;;2.53;;
33108;SDS011;19481;51.118;6.940;2024-02-28T14:33:07;4.53;;;2.13;;
33108;SDS011;19481;51.118;6.940;2024-02-28T14:38:08;9.90;;;4.18;;
33108;SDS011;19481;51.118;6.940;2024-02-28T14:43:10;6.85;;;2.67;;
33108;SDS011;19481;51.118;6.940;2024-02-28T14:48:13;7.32;;;2.97;;
33108;SDS011;19481;51.118;6.940;2024-02-28T14:53:15;5.28;;;2.80;;
33108;SDS011;19481;51.118;6.940;2024-02-28T14:58:18;3.75;;;2.80;;
33108;SDS011;19481;51.118;6.940;2024-02-28T15:03:21;7.00;;;2.45;;
33108;SDS011;19481;51.118;6.940;2024-02-28T15:08:23;5.28;;;2.03;;
33108;SDS011;19481;51.118;6.940;2024-02-28T15:13:25;7.43;;;2.25;;
33108;SDS011;19481;51.118;6.940;2024-02-28T15:18:27;6.05;;;2.50;;
33108;SDS011;19481;51.118;6.940;2024-02-28T15:23:29;8.07;;;2.97;;
33108;SDS011;19481;51.118;6.940;2024-02-28T15:28:31;6.65;;;3.00;;
33108;SDS011;19481;51.118;6.940;2024-02-28T15:33:34;6.70;;;2.92;;
33108;SDS011;19481;51.118;6.940;2024-02-28T15:38:36;6.93;;;2.45;;
33108;SDS011;19481;51.118;6.940;2024-02-28T15:43:38;10.35;;;3.15;;
33108;SDS011;19481;51.118;6.940;2024-02-28T15:48:40;6.70;;;3.03;;
33108;SDS011;19481;51.118;6.940;2024-02-28T15:53:42;6.70;;;2.60;;
33108;SDS011;19481;51.118;6.940;2024-02-28T15:58:44;6.07;;;2.80;;
33108;SDS011;19481;51.118;6.940;2024-02-28T16:03:47;3.33;;;2.10;;
33108;SDS011;19481;51.118;6.940;2024-02-28T16:08:48;8.30;;;3.25;;
33108;SDS011;19481;51.118;6.940;2024-02-28T16:13:50;7.55;;;2.65;;
33108;SDS011;19481;51.118;6.940;2024-02-28T16:18:53;3.55;;;2.42;;
33108;SDS011;19481;51.118;6.940;2024-02-28T16:23:54;8.00;;;2.47;;
33108;SDS011;19481;51.118;6.940;2024-02-28T16:28:56;7.10;;;2.42;;
33108;SDS011;19481;51.118;6.940;2024-02-28T16:33:59;5.60;;;2.53;;
33108;SDS011;19481;51.118;6.940;2024-02-28T16:39:01;3.85;;;2.35;;
33108;SDS011;19481;51.118;6.940;2024-02-28T16:44:02;6.97;;;2.00;;
33108;SDS011;19481;51.118;6.940;2024-02-28T16:49:05;5.43;;;2.63;;
33108;SDS011;19481;51.118;6.940;2024-02-28T16:54:07;4.43;;;2.42;;
33108;SDS011;19481;51.118;6.940;2024-02-28T16:59:09;5.05;;;2.40;;
33108;SDS011;19481;51.118;6.940;2024-02-28T17:04:13;5.32;;;2.65;;
33108;SDS011;19481;51.118;6.940;2024-02-28T17:09:15;6.82;;;2.70;;
33108;SDS011;19481;51.118;6.940;2024-02-28T17:14:16;5.20;;;2.50;;
33108;SDS011;19481;51.118;6.940;2024-02-28T17:19:19;7.78;;;2.75;;
33108;SDS011;19481;51.118;6.940;2024-02-28T17:24:21;7.28;;;3.25;;
33108;SDS011;19481;51.118;6.940;2024-02-28T17:29:23;6.00;;;3.10;;
33108;SDS011;19481;51.118;6.940;2024-02-28T17:34:26;5.57;;;2.80;;
33108;SDS011;19481;51.118;6.940;2024-02-28T17:39:27;4.95;;;3.22;;
33108;SDS011;19481;51.118;6.940;2024-02-28T17:44:29;9.23;;;3.08;;
33108;SDS011;19481;51.118;6.940;2024-02-28T17:49:32;10.15;;;2.75;;
33108;SDS011;19481;51.118;6.940;2024-02-28T17:54:36;6.35;;;3.17;;
33108;SDS011;19481;51.118;6.940;2024-02-28T17:59:38;9.35;;;3.00;;
33108;SDS011;19481;51.118;6.940;2024-02-28T18:04:41;6.53;;;2.65;;
33108;SDS011;19481;51.118;6.940;2024-02-28T18:09:43;7.30;;;3.45;;
33108;SDS011;19481;51.118;6.940;2024-02-28T18:14:45;5.20;;;2.20;;
33108;SDS011;19481;51.118;6.940;2024-02-28T18:19:48;7.38;;;3.05;;
33108;SDS011;19481;51.118;6.940;2024-02-28T18:24:49;6.63;;;3.20;;
33108;SDS011;19481;51.118;6.940;2024-02-28T18:29:51;5.85;;;2.70;;
33108;SDS011;19481;51.118;6.940;2024-02-28T18:34:54;5.15;;;2.70;;
33108;SDS011;19481;51.118;6.940;2024-02-28T18:39:58;6.72;;;2.53;;
33108;SDS011;19481;51.118;6.940;2024-02-28T18:45:00;7.10;;;2.92;;
33108;SDS011;19481;51.118;6.940;2024-02-28T18:50:06;11.85;;;2.67;;
33108;SDS011;19481;51.118;6.940;2024-02-28T18:55:08;8.75;;;3.13;;
33108;SDS011;19481;51.118;6.940;2024-02-28T19:00:10;8.65;;;2.58;;
33108;SDS011;19481;51.118;6.940;2024-02-28T19:05:14;6.10;;;2.80;;
33108;SDS011;19481;51.118;6.940;2024-02-28T19:10:16;4.13;;;2.05;;
33108;SDS011;19481;51.118;6.940;2024-02-28T19:15:18;10.82;;;3.33;;
33108;SDS011;19481;51.118;6.940;2024-02-28T19:20:21;3.83;;;2.45;;
33108;SDS011;19481;51.118;6.940;2024-02-28T19:25:23;8.93;;;3.20;;
33108;SDS011;19481;51.118;6.940;2024-02-28T19:30:24;6.97;;;3.20;;
33108;SDS011;19481;51.118;6.940;2024-02-28T19:35:27;10.45;;;3.42;;
33108;SDS011;19481;51.118;6.940;2024-02-28T19:40:29;5.57;;;2.83;;
33108;SDS011;19481;51.118;6.940;2024-02-28T19:45:33;5.70;;;3.05;;
33108;SDS011;19481;51.118;6.940;2024-02-28T19:50:36;8.73;;;3.13;;
33108;SDS011;19481;51.118;6.940;2024-02-28T19:55:38;7.97;;;2.17;;
33108;SDS011;19481;51.118;6.940;2024-02-28T20:00:40;7.80;;;2.78;;
33108;SDS011;19481;51.118;6.940;2024-02-28T20:05:44;7.72;;;2.55;;
33108;SDS011;19481;51.118;6.940;2024-02-28T20:10:46;4.82;;;2.63;;
33108;SDS011;19481;51.118;6.940;2024-02-28T20:15:49;8.10;;;2.70;;
33108;SDS011;19481;51.118;6.940;2024-02-28T20:20:52;4.50;;;2.80;;
33108;SDS011;19481;51.118;6.940;2024-02-28T20:25:53;6.68;;;2.67;;
33108;SDS011;19481;51.118;6.940;2024-02-28T20:30:55;4.65;;;2.08;;
33108;SDS011;19481;51.118;6.940;2024-02-28T20:35:58;4.88;;;2.67;;
33108;SDS011;19481;51.118;6.940;2024-02-28T20:40:59;3.72;;;2.22;;
33108;SDS011;19481;51.118;6.940;2024-02-28T20:46:01;3.55;;;2.53;;
33108;SDS011;19481;51.118;6.940;2024-02-28T20:51:04;7.53;;;2.50;;
33108;SDS011;19481;51.118;6.940;2024-02-28T20:56:06;3.35;;;1.88;;
33108;SDS011;19481;51.118;6.940;2024-02-28T21:01:08;4.80;;;2.30;;
33108;SDS011;19481;51.118;6.940;2024-02-28T21:06:11;4.70;;;2.33;;
33108;SDS011;19481;51.118;6.940;2024-02-28T21:11:14;7.97;;;2.38;;
33108;SDS011;19481;51.118;6.940;2024-02-28T21:16:15;5.93;;;1.92;;
33108;SDS011;19481;51.118;6.940;2024-02-28T21:21:18;3.25;;;1.55;;
33108;SDS011;19481;51.118;6.940;2024-02-28T21:26:20;4.22;;;2.75;;
33108;SDS011;19481;51.118;6.940;2024-02-28T21:31:22;2.95;;;1.48;;
33108;SDS011;19481;51.118;6.940;2024-02-28T21:36:25;4.70;;;2.17;;
33108;SDS011;19481;51.118;6.940;2024-02-28T21:41:26;2.10;;;1.90;;
33108;SDS011;19481;51.118;6.940;2024-02-28T21:46:28;3.15;;;1.77;;
33108;SDS011;19481;51.118;6.940;2024-02-28T21:51:31;1.70;;;1.48;;
33108;SDS011;19481;51.118;6.940;2024-02-28T21:56:32;2.35;;;2.10;;
33108;SDS011;19481;51.118;6.940;2024-02-28T22:01:34;4.25;;;2.53;;
33108;SDS011;19481;51.118;6.940;2024-02-28T22:06:37;6.10;;;2.47;;
33108;SDS011;19481;51.118;6.940;2024-02-28T22:11:39;7.35;;;2.35;;
33108;SDS011;19481;51.118;6.940;2024-02-28T22:16:40;3.45;;;2.58;;
33108;SDS011;19481;51.118;6.940;2024-02-28T22:21:43;1.85;;;1.45;;
33108;SDS011;19481;51.118;6.940;2024-02-28T22:26:45;3.92;;;1.27;;
33108;SDS011;19481;51.118;6.940;2024-02-28T22:31:46;4.10;;;1.65;;
33108;SDS011;19481;51.118;6.940;2024-02-28T22:36:49;3.95;;;1.98;;
33108;SDS011;19481;51.118;6.940;2024-02-28T22:41:51;3.30;;;1.30;;
33108;SDS011;19481;51.118;6.940;2024-02-28T22:46:53;3.17;;;2.00;;
33108;SDS011;19481;51.118;6.940;2024-02-28T22:51:56;1.67;;;1.58;;
33108;SDS011;19481;51.118;6.940;2024-02-28T22:56:57;0.98;;;0.90;;
33108;SDS011;19481;51.118;6.940;2024-02-28T23:01:59;2.17;;;1.55;;
33108;SDS011;19481;51.118;6.940;2024-02-28T23:07:02;2.40;;;1.48;;
33108;SDS011;19481;51.118;6.940;2024-02-28T23:12:04;1.67;;;1.20;;
33108;SDS011;19481;51.118;6.940;2024-02-28T23:17:06;2.95;;;2.03;;
33108;SDS011;19481;51.118;6.940;2024-02-28T23:22:11;1.80;;;1.25;;
33108;SDS011;19481;51.118;6.940;2024-02-28T23:27:13;2.13;;;1.73;;
33108;SDS011;19481;51.118;6.940;2024-02-28T23:32:14;0.95;;;0.90;;
33108;SDS011;19481;51.118;6.940;2024-02-28T23:37:17;1.52;;;1.10;;
33108;SDS011;19481;51.118;6.940;2024-02-28T23:42:19;2.85;;;1.75;;
33108;SDS011;19481;51.118;6.940;2024-02-28T23:47:20;4.32;;;1.48;;
33108;SDS011;19481;51.118;6.940;2024-02-28T23:52:23;1.55;;;1.35;;
33108;SDS011;19481;51.118;6.940;2024-02-28T23:57:25;2.08;;;1.35;;
